sensor_id;sensor_type;location;lat;lon;timestamp;P1;durP1;ratioP1;P2;durP2;ratioP2
18364;SDS011;9309;52.126;11.616;2023-09-07T00:40:36;4.20;;;3.60;;
18364;SDS011;9309;52.126;11.616;2023-09-07T00:43:03;3.53;;;3.20;;
18364;SDS011;9309;52.126;11.616;2023-09-07T00:45:30;5.43;;;4.23;;
18364;SDS011;9309;52.126;11.616;2023-09-07T00:47:57;3.80;;;3.50;;
18364;SDS011;9309;52.126;11.616;2023-09-07T00:50:24;4.00;;;3.60;;
18364;SDS011;9309;52.126;11.616;2023-09-07T00:52:53;4.17;;;3.77;;
18364;SDS011;9309;52.126;11.616;2023-09-07T00:55:20;5.23;;;4.00;;
18364;SDS011;9309;52.126;11.616;2023-09-07T00:57:48;4.73;;;3.77;;
18364;SDS011;9309;52.126;11.616;2023-09-07T01:00:15;4.30;;;3.90;;
18364;SDS011;9309;52.126;11.616;2023-09-07T01:02:42;4.53;;;3.83;;
18364;SDS011;9309;52.126;11.616;2023-09-07T01:05:10;7.97;;;4.50;;
18364;SDS011;9309;52.126;11.616;2023-09-07T01:07:37;3.43;;;3.13;;
18364;SDS011;9309;52.126;11.616;2023-09-07T01:10:08;4.30;;;3.90;;
18364;SDS011;9309;52.126;11.616;2023-09-07T01:12:35;5.83;;;3.70;;
18364;SDS011;9309;52.126;11.616;2023-09-07T01:15:02;6.80;;;4.47;;
18364;SDS011;9309;52.126;11.616;2023-09-07T01:17:30;5.07;;;3.87;;
18364;SDS011;9309;52.126;11.616;2023-09-07T01:19:57;4.37;;;3.97;;
18364;SDS011;9309;52.126;11.616;2023-09-07T01:22:32;6.37;;;4.27;;
18364;SDS011;9309;52.126;11.616;2023-09-07T01:25:00;5.10;;;4.53;;
18364;SDS011;9309;52.126;11.616;2023-09-07T01:27:28;6.30;;;4.37;;
18364;SDS011;9309;52.126;11.616;2023-09-07T01:29:55;4.77;;;4.23;;
18364;SDS011;9309;52.126;11.616;2023-09-07T01:32:21;4.53;;;4.13;;
18364;SDS011;9309;52.126;11.616;2023-09-07T01:34:48;8.27;;;4.23;;
18364;SDS011;9309;52.126;11.616;2023-09-07T01:37:15;8.53;;;4.53;;
18364;SDS011;9309;52.126;11.616;2023-09-07T01:39:43;7.87;;;3.97;;
18364;SDS011;9309;52.126;11.616;2023-09-07T01:42:10;5.07;;;4.37;;
18364;SDS011;9309;52.126;11.616;2023-09-07T01:44:36;5.10;;;4.50;;
18364;SDS011;9309;52.126;11.616;2023-09-07T01:47:03;5.70;;;4.70;;
18364;SDS011;9309;52.126;11.616;2023-09-07T01:49:30;5.33;;;4.53;;
18364;SDS011;9309;52.126;11.616;2023-09-07T01:51:57;4.47;;;4.17;;
18364;SDS011;9309;52.126;11.616;2023-09-07T01:54:24;4.93;;;4.23;;
18364;SDS011;9309;52.126;11.616;2023-09-07T01:56:53;5.17;;;4.63;;
18364;SDS011;9309;52.126;11.616;2023-09-07T01:59:19;5.57;;;3.90;;
18364;SDS011;9309;52.126;11.616;2023-09-07T02:01:46;4.30;;;3.90;;
18364;SDS011;9309;52.126;11.616;2023-09-07T02:04:13;5.53;;;4.30;;
18364;SDS011;9309;52.126;11.616;2023-09-07T02:06:40;4.60;;;4.20;;
18364;SDS011;9309;52.126;11.616;2023-09-07T02:09:06;6.37;;;4.10;;
18364;SDS011;9309;52.126;11.616;2023-09-07T02:11:35;5.33;;;4.07;;
18364;SDS011;9309;52.126;11.616;2023-09-07T02:14:03;5.87;;;4.63;;
18364;SDS011;9309;52.126;11.616;2023-09-07T02:16:30;6.23;;;4.43;;
18364;SDS011;9309;52.126;11.616;2023-09-07T02:19:00;5.00;;;4.40;;
18364;SDS011;9309;52.126;11.616;2023-09-07T02:21:28;5.03;;;4.33;;
18364;SDS011;9309;52.126;11.616;2023-09-07T02:23:55;4.90;;;4.07;;
18364;SDS011;9309;52.126;11.616;2023-09-07T02:26:22;6.13;;;4.60;;
18364;SDS011;9309;52.126;11.616;2023-09-07T02:28:49;5.47;;;4.20;;
18364;SDS011;9309;52.126;11.616;2023-09-07T02:31:17;4.70;;;4.20;;
18364;SDS011;9309;52.126;11.616;2023-09-07T02:33:44;6.17;;;4.33;;
18364;SDS011;9309;52.126;11.616;2023-09-07T02:36:10;5.37;;;4.20;;
18364;SDS011;9309;52.126;11.616;2023-09-07T02:38:37;11.87;;;5.27;;
18364;SDS011;9309;52.126;11.616;2023-09-07T02:41:04;4.57;;;4.07;;
18364;SDS011;9309;52.126;11.616;2023-09-07T02:43:31;5.60;;;4.40;;
18364;SDS011;9309;52.126;11.616;2023-09-07T02:45:58;6.00;;;4.53;;
18364;SDS011;9309;52.126;11.616;2023-09-07T02:48:26;10.07;;;4.77;;
18364;SDS011;9309;52.126;11.616;2023-09-07T02:50:53;8.80;;;4.67;;
18364;SDS011;9309;52.126;11.616;2023-09-07T02:53:23;5.93;;;4.70;;
18364;SDS011;9309;52.126;11.616;2023-09-07T02:55:50;6.67;;;4.83;;
18364;SDS011;9309;52.126;11.616;2023-09-07T02:58:17;7.17;;;5.50;;
18364;SDS011;9309;52.126;11.616;2023-09-07T03:00:44;6.83;;;4.50;;
18364;SDS011;9309;52.126;11.616;2023-09-07T03:03:14;9.43;;;5.20;;
18364;SDS011;9309;52.126;11.616;2023-09-07T03:05:43;7.60;;;4.97;;
18364;SDS011;9309;52.126;11.616;2023-09-07T03:08:10;6.77;;;4.63;;
18364;SDS011;9309;52.126;11.616;2023-09-07T03:10:37;6.10;;;4.40;;
18364;SDS011;9309;52.126;11.616;2023-09-07T03:13:05;5.30;;;4.70;;
18364;SDS011;9309;52.126;11.616;2023-09-07T03:15:32;7.57;;;4.60;;
18364;SDS011;9309;52.126;11.616;2023-09-07T03:17:59;7.17;;;5.00;;
18364;SDS011;9309;52.126;11.616;2023-09-07T03:20:26;6.23;;;5.03;;
18364;SDS011;9309;52.126;11.616;2023-09-07T03:22:55;7.10;;;4.77;;
18364;SDS011;9309;52.126;11.616;2023-09-07T03:25:22;7.63;;;4.50;;
18364;SDS011;9309;52.126;11.616;2023-09-07T03:27:49;4.97;;;4.03;;
18364;SDS011;9309;52.126;11.616;2023-09-07T03:30:16;5.27;;;4.57;;
18364;SDS011;9309;52.126;11.616;2023-09-07T03:32:43;6.67;;;5.03;;
18364;SDS011;9309;52.126;11.616;2023-09-07T03:35:11;7.80;;;5.20;;
18364;SDS011;9309;52.126;11.616;2023-09-07T03:37:38;5.33;;;4.70;;
18364;SDS011;9309;52.126;11.616;2023-09-07T03:40:07;5.07;;;4.47;;
18364;SDS011;9309;52.126;11.616;2023-09-07T03:42:35;6.60;;;4.57;;
18364;SDS011;9309;52.126;11.616;2023-09-07T03:45:03;9.90;;;5.43;;
18364;SDS011;9309;52.126;11.616;2023-09-07T03:47:31;6.50;;;4.53;;
18364;SDS011;9309;52.126;11.616;2023-09-07T03:52:28;7.40;;;5.10;;
18364;SDS011;9309;52.126;11.616;2023-09-07T03:54:57;8.43;;;5.67;;
18364;SDS011;9309;52.126;11.616;2023-09-07T03:57:25;7.20;;;5.67;;
18364;SDS011;9309;52.126;11.616;2023-09-07T03:59:53;8.43;;;4.70;;
18364;SDS011;9309;52.126;11.616;2023-09-07T04:02:20;5.63;;;4.43;;
18364;SDS011;9309;52.126;11.616;2023-09-07T04:04:48;7.43;;;5.20;;
18364;SDS011;9309;52.126;11.616;2023-09-07T04:07:16;8.47;;;5.23;;
18364;SDS011;9309;52.126;11.616;2023-09-07T04:09:43;5.90;;;4.93;;
18364;SDS011;9309;52.126;11.616;2023-09-07T04:12:10;6.07;;;5.33;;
18364;SDS011;9309;52.126;11.616;2023-09-07T04:14:39;8.40;;;4.90;;
18364;SDS011;9309;52.126;11.616;2023-09-07T04:17:07;5.53;;;4.90;;
18364;SDS011;9309;52.126;11.616;2023-09-07T04:19:33;8.60;;;5.03;;
18364;SDS011;9309;52.126;11.616;2023-09-07T04:22:00;10.53;;;7.13;;
18364;SDS011;9309;52.126;11.616;2023-09-07T04:24:28;8.87;;;5.57;;
18364;SDS011;9309;52.126;11.616;2023-09-07T04:26:58;7.97;;;5.70;;
18364;SDS011;9309;52.126;11.616;2023-09-07T04:29:25;8.67;;;6.50;;
18364;SDS011;9309;52.126;11.616;2023-09-07T04:31:54;7.07;;;5.40;;
18364;SDS011;9309;52.126;11.616;2023-09-07T04:34:21;7.23;;;5.57;;
18364;SDS011;9309;52.126;11.616;2023-09-07T04:36:48;9.70;;;5.97;;
18364;SDS011;9309;52.126;11.616;2023-09-07T04:39:15;8.60;;;6.37;;
18364;SDS011;9309;52.126;11.616;2023-09-07T04:41:42;7.03;;;5.70;;
18364;SDS011;9309;52.126;11.616;2023-09-07T04:44:09;9.83;;;6.57;;
18364;SDS011;9309;52.126;11.616;2023-09-07T04:46:36;10.50;;;5.90;;
18364;SDS011;9309;52.126;11.616;2023-09-07T04:49:05;7.13;;;5.43;;
18364;SDS011;9309;52.126;11.616;2023-09-07T04:51:32;6.43;;;5.37;;
18364;SDS011;9309;52.126;11.616;2023-09-07T04:53:59;7.47;;;5.37;;
18364;SDS011;9309;52.126;11.616;2023-09-07T04:56:26;5.77;;;5.17;;
18364;SDS011;9309;52.126;11.616;2023-09-07T04:58:54;10.07;;;5.80;;
18364;SDS011;9309;52.126;11.616;2023-09-07T05:01:21;11.30;;;6.00;;
18364;SDS011;9309;52.126;11.616;2023-09-07T05:03:48;9.70;;;6.10;;
18364;SDS011;9309;52.126;11.616;2023-09-07T05:06:17;11.57;;;6.80;;
18364;SDS011;9309;52.126;11.616;2023-09-07T05:08:44;6.10;;;5.40;;
18364;SDS011;9309;52.126;11.616;2023-09-07T05:11:11;6.93;;;5.10;;
18364;SDS011;9309;52.126;11.616;2023-09-07T12:30:03;1.83;;;1.73;;
18364;SDS011;9309;52.126;11.616;2023-09-07T12:32:38;2.00;;;1.90;;
18364;SDS011;9309;52.126;11.616;2023-09-07T12:35:05;2.10;;;1.77;;
18364;SDS011;9309;52.126;11.616;2023-09-07T12:37:33;1.70;;;1.60;;
18364;SDS011;9309;52.126;11.616;2023-09-07T12:40:01;1.75;;;1.65;;
18364;SDS011;9309;52.126;11.616;2023-09-07T12:42:31;1.63;;;1.63;;
18364;SDS011;9309;52.126;11.616;2023-09-07T12:44:58;2.25;;;1.70;;
18364;SDS011;9309;52.126;11.616;2023-09-07T12:47:25;1.92;;;1.90;;
18364;SDS011;9309;52.126;11.616;2023-09-07T12:49:53;1.65;;;1.65;;
18364;SDS011;9309;52.126;11.616;2023-09-07T12:54:46;1.50;;;1.50;;
18364;SDS011;9309;52.126;11.616;2023-09-07T12:57:13;1.50;;;1.50;;
18364;SDS011;9309;52.126;11.616;2023-09-07T12:59:40;1.90;;;1.90;;
18364;SDS011;9309;52.126;11.616;2023-09-07T13:02:07;2.10;;;2.00;;
18364;SDS011;9309;52.126;11.616;2023-09-07T13:04:34;1.40;;;1.40;;
18364;SDS011;9309;52.126;11.616;2023-09-07T13:07:02;1.50;;;1.50;;
18364;SDS011;9309;52.126;11.616;2023-09-07T13:09:29;2.15;;;1.50;;
18364;SDS011;9309;52.126;11.616;2023-09-07T13:11:56;2.20;;;2.10;;
18364;SDS011;9309;52.126;11.616;2023-09-07T13:14:23;1.88;;;1.77;;
18364;SDS011;9309;52.126;11.616;2023-09-07T13:16:50;1.90;;;1.80;;
18364;SDS011;9309;52.126;11.616;2023-09-07T13:19:17;1.70;;;1.67;;
18364;SDS011;9309;52.126;11.616;2023-09-07T13:21:43;1.77;;;1.67;;
18364;SDS011;9309;52.126;11.616;2023-09-07T13:24:12;1.52;;;1.50;;
18364;SDS011;9309;52.126;11.616;2023-09-07T13:26:39;1.70;;;1.60;;
18364;SDS011;9309;52.126;11.616;2023-09-07T13:29:07;1.83;;;1.73;;
18364;SDS011;9309;52.126;11.616;2023-09-07T13:31:33;2.08;;;1.88;;
18364;SDS011;9309;52.126;11.616;2023-09-07T13:34:00;1.70;;;1.63;;
18364;SDS011;9309;52.126;11.616;2023-09-07T13:36:27;1.85;;;1.75;;
18364;SDS011;9309;52.126;11.616;2023-09-07T13:38:54;1.27;;;1.27;;
18364;SDS011;9309;52.126;11.616;2023-09-07T13:41:23;1.73;;;1.63;;
18364;SDS011;9309;52.126;11.616;2023-09-07T13:43:50;1.70;;;1.60;;
18364;SDS011;9309;52.126;11.616;2023-09-07T13:46:17;1.50;;;1.50;;
18364;SDS011;9309;52.126;11.616;2023-09-07T13:48:43;1.77;;;1.67;;
18364;SDS011;9309;52.126;11.616;2023-09-07T13:53:37;1.70;;;1.60;;
18364;SDS011;9309;52.126;11.616;2023-09-07T13:56:04;1.67;;;1.63;;
18364;SDS011;9309;52.126;11.616;2023-09-07T13:58:32;1.70;;;1.60;;
18364;SDS011;9309;52.126;11.616;2023-09-07T14:00:59;1.63;;;1.55;;
18364;SDS011;9309;52.126;11.616;2023-09-07T14:03:25;1.60;;;1.60;;
18364;SDS011;9309;52.126;11.616;2023-09-07T14:08:19;1.63;;;1.52;;
18364;SDS011;9309;52.126;11.616;2023-09-07T14:10:48;1.90;;;1.80;;
18364;SDS011;9309;52.126;11.616;2023-09-07T14:13:15;1.50;;;1.40;;
18364;SDS011;9309;52.126;11.616;2023-09-07T14:15:45;1.98;;;1.95;;
18364;SDS011;9309;52.126;11.616;2023-09-07T14:18:12;1.80;;;1.70;;
18364;SDS011;9309;52.126;11.616;2023-09-07T14:20:39;1.83;;;1.73;;
18364;SDS011;9309;52.126;11.616;2023-09-07T14:23:06;1.92;;;1.83;;
18364;SDS011;9309;52.126;11.616;2023-09-07T14:25:33;2.33;;;2.22;;
18364;SDS011;9309;52.126;11.616;2023-09-07T14:27:59;1.95;;;1.58;;
18364;SDS011;9309;52.126;11.616;2023-09-07T14:30:26;1.90;;;1.80;;
18364;SDS011;9309;52.126;11.616;2023-09-07T14:32:54;1.60;;;1.50;;
18364;SDS011;9309;52.126;11.616;2023-09-07T14:35:21;2.08;;;1.98;;
18364;SDS011;9309;52.126;11.616;2023-09-07T14:37:48;1.42;;;1.42;;
18364;SDS011;9309;52.126;11.616;2023-09-07T14:40:17;2.15;;;2.08;;
18364;SDS011;9309;52.126;11.616;2023-09-07T14:42:44;1.80;;;1.70;;
18364;SDS011;9309;52.126;11.616;2023-09-07T14:45:12;2.13;;;2.03;;
18364;SDS011;9309;52.126;11.616;2023-09-07T14:47:39;1.25;;;1.25;;
18364;SDS011;9309;52.126;11.616;2023-09-07T14:50:08;1.42;;;1.42;;
18364;SDS011;9309;52.126;11.616;2023-09-07T14:52:35;6.97;;;1.98;;
18364;SDS011;9309;52.126;11.616;2023-09-07T14:55:06;1.70;;;1.60;;
18364;SDS011;9309;52.126;11.616;2023-09-07T14:57:33;1.73;;;1.60;;
18364;SDS011;9309;52.126;11.616;2023-09-07T15:00:00;1.60;;;1.50;;
18364;SDS011;9309;52.126;11.616;2023-09-07T15:02:28;1.90;;;1.80;;
18364;SDS011;9309;52.126;11.616;2023-09-07T15:04:55;6.28;;;1.90;;
18364;SDS011;9309;52.126;11.616;2023-09-07T15:07:23;1.42;;;1.42;;
18364;SDS011;9309;52.126;11.616;2023-09-07T15:09:50;1.95;;;1.83;;
18364;SDS011;9309;52.126;11.616;2023-09-07T15:12:18;1.95;;;1.80;;
18364;SDS011;9309;52.126;11.616;2023-09-07T15:14:44;2.17;;;2.08;;
18364;SDS011;9309;52.126;11.616;2023-09-07T15:17:12;2.03;;;1.80;;
18364;SDS011;9309;52.126;11.616;2023-09-07T15:19:39;1.58;;;1.48;;
18364;SDS011;9309;52.126;11.616;2023-09-07T15:22:06;2.75;;;2.60;;
18364;SDS011;9309;52.126;11.616;2023-09-07T15:24:34;1.80;;;1.70;;
18364;SDS011;9309;52.126;11.616;2023-09-07T15:27:06;2.97;;;1.85;;
18364;SDS011;9309;52.126;11.616;2023-09-07T15:29:34;3.50;;;1.70;;
18364;SDS011;9309;52.126;11.616;2023-09-07T15:32:00;2.10;;;1.90;;
18364;SDS011;9309;52.126;11.616;2023-09-07T15:34:27;1.92;;;1.92;;
18364;SDS011;9309;52.126;11.616;2023-09-07T15:36:54;1.88;;;1.80;;
18364;SDS011;9309;52.126;11.616;2023-09-07T15:39:21;1.80;;;1.70;;
18364;SDS011;9309;52.126;11.616;2023-09-07T15:41:49;1.90;;;1.80;;
18364;SDS011;9309;52.126;11.616;2023-09-07T15:44:17;2.15;;;2.05;;
18364;SDS011;9309;52.126;11.616;2023-09-07T15:46:44;4.03;;;2.45;;
18364;SDS011;9309;52.126;11.616;2023-09-07T15:49:11;2.10;;;2.00;;
18364;SDS011;9309;52.126;11.616;2023-09-07T15:51:38;2.75;;;1.92;;
18364;SDS011;9309;52.126;11.616;2023-09-07T15:54:05;3.45;;;2.55;;
18364;SDS011;9309;52.126;11.616;2023-09-07T15:56:32;2.00;;;1.90;;
18364;SDS011;9309;52.126;11.616;2023-09-07T15:59:00;2.03;;;1.83;;
18364;SDS011;9309;52.126;11.616;2023-09-07T16:01:27;2.00;;;1.90;;
18364;SDS011;9309;52.126;11.616;2023-09-07T16:03:54;2.17;;;2.05;;
18364;SDS011;9309;52.126;11.616;2023-09-07T16:06:21;3.67;;;2.67;;
18364;SDS011;9309;52.126;11.616;2023-09-07T16:08:48;2.17;;;2.00;;
18364;SDS011;9309;52.126;11.616;2023-09-07T16:11:15;2.05;;;1.95;;
18364;SDS011;9309;52.126;11.616;2023-09-07T16:13:41;3.28;;;2.38;;
18364;SDS011;9309;52.126;11.616;2023-09-07T16:16:10;2.30;;;2.10;;
18364;SDS011;9309;52.126;11.616;2023-09-07T16:18:36;2.40;;;2.20;;
18364;SDS011;9309;52.126;11.616;2023-09-07T16:21:03;2.28;;;1.85;;
18364;SDS011;9309;52.126;11.616;2023-09-07T16:23:31;2.20;;;2.10;;
18364;SDS011;9309;52.126;11.616;2023-09-07T16:25:58;2.65;;;2.45;;
18364;SDS011;9309;52.126;11.616;2023-09-07T16:28:25;2.20;;;2.08;;
18364;SDS011;9309;52.126;11.616;2023-09-07T16:30:52;2.95;;;2.53;;
18364;SDS011;9309;52.126;11.616;2023-09-07T16:33:20;2.40;;;2.30;;
18364;SDS011;9309;52.126;11.616;2023-09-07T16:35:47;2.15;;;2.05;;
18364;SDS011;9309;52.126;11.616;2023-09-07T16:38:13;2.20;;;2.10;;
18364;SDS011;9309;52.126;11.616;2023-09-07T16:40:40;2.95;;;2.72;;
18364;SDS011;9309;52.126;11.616;2023-09-07T16:43:07;6.13;;;1.70;;
18364;SDS011;9309;52.126;11.616;2023-09-07T16:45:34;2.25;;;1.95;;
18364;SDS011;9309;52.126;11.616;2023-09-07T16:48:01;2.63;;;2.30;;
18364;SDS011;9309;52.126;11.616;2023-09-07T16:50:29;3.35;;;2.38;;
18364;SDS011;9309;52.126;11.616;2023-09-07T16:52:56;2.08;;;1.95;;
18364;SDS011;9309;52.126;11.616;2023-09-07T16:55:23;2.35;;;2.20;;
18364;SDS011;9309;52.126;11.616;2023-09-07T16:57:50;3.03;;;2.05;;
18364;SDS011;9309;52.126;11.616;2023-09-07T17:00:17;2.60;;;2.40;;
18364;SDS011;9309;52.126;11.616;2023-09-07T17:02:44;2.20;;;2.05;;
18364;SDS011;9309;52.126;11.616;2023-09-07T17:05:10;2.55;;;2.35;;
18364;SDS011;9309;52.126;11.616;2023-09-07T17:07:41;2.67;;;2.20;;
18364;SDS011;9309;52.126;11.616;2023-09-07T17:10:08;3.72;;;2.78;;
18364;SDS011;9309;52.126;11.616;2023-09-07T17:12:35;2.05;;;1.95;;
18364;SDS011;9309;52.126;11.616;2023-09-07T17:15:01;2.80;;;2.60;;
18364;SDS011;9309;52.126;11.616;2023-09-07T17:17:29;2.53;;;2.33;;
18364;SDS011;9309;52.126;11.616;2023-09-07T17:19:57;1.65;;;1.55;;
18364;SDS011;9309;52.126;11.616;2023-09-07T17:22:24;2.08;;;1.92;;
18364;SDS011;9309;52.126;11.616;2023-09-07T17:24:53;1.88;;;1.77;;
18364;SDS011;9309;52.126;11.616;2023-09-07T17:27:19;2.25;;;2.15;;
18364;SDS011;9309;52.126;11.616;2023-09-07T17:29:46;2.40;;;2.17;;
18364;SDS011;9309;52.126;11.616;2023-09-07T17:32:13;2.10;;;2.00;;
18364;SDS011;9309;52.126;11.616;2023-09-07T17:34:40;1.95;;;1.90;;
18364;SDS011;9309;52.126;11.616;2023-09-07T17:37:07;2.95;;;2.13;;
18364;SDS011;9309;52.126;11.616;2023-09-07T17:39:34;2.42;;;2.20;;
18364;SDS011;9309;52.126;11.616;2023-09-07T17:42:03;2.28;;;2.10;;
18364;SDS011;9309;52.126;11.616;2023-09-07T17:44:30;5.97;;;2.40;;
18364;SDS011;9309;52.126;11.616;2023-09-07T17:46:57;2.55;;;2.08;;
18364;SDS011;9309;52.126;11.616;2023-09-07T17:49:25;4.00;;;2.70;;
18364;SDS011;9309;52.126;11.616;2023-09-07T17:51:52;2.50;;;2.30;;
18364;SDS011;9309;52.126;11.616;2023-09-07T17:54:19;2.13;;;2.03;;
18364;SDS011;9309;52.126;11.616;2023-09-07T17:56:46;2.13;;;2.03;;
18364;SDS011;9309;52.126;11.616;2023-09-07T17:59:14;2.35;;;2.15;;
18364;SDS011;9309;52.126;11.616;2023-09-07T18:01:41;2.58;;;2.38;;
18364;SDS011;9309;52.126;11.616;2023-09-07T18:04:08;3.03;;;1.95;;
18364;SDS011;9309;52.126;11.616;2023-09-07T18:06:35;3.72;;;2.67;;
18364;SDS011;9309;52.126;11.616;2023-09-07T18:09:02;3.47;;;2.35;;
18364;SDS011;9309;52.126;11.616;2023-09-07T18:11:31;2.97;;;2.78;;
18364;SDS011;9309;52.126;11.616;2023-09-07T18:13:58;2.75;;;2.28;;
18364;SDS011;9309;52.126;11.616;2023-09-07T18:16:26;2.58;;;2.33;;
18364;SDS011;9309;52.126;11.616;2023-09-07T18:18:54;2.75;;;2.42;;
18364;SDS011;9309;52.126;11.616;2023-09-07T18:21:21;2.40;;;2.20;;
18364;SDS011;9309;52.126;11.616;2023-09-07T18:23:47;2.70;;;2.50;;
18364;SDS011;9309;52.126;11.616;2023-09-07T18:26:14;4.93;;;1.92;;
18364;SDS011;9309;52.126;11.616;2023-09-07T18:28:41;2.78;;;2.35;;
18364;SDS011;9309;52.126;11.616;2023-09-07T18:31:08;7.85;;;2.55;;
18364;SDS011;9309;52.126;11.616;2023-09-07T18:33:37;2.38;;;2.17;;
18364;SDS011;9309;52.126;11.616;2023-09-07T18:36:04;3.67;;;2.08;;
18364;SDS011;9309;52.126;11.616;2023-09-07T18:38:32;2.47;;;2.30;;
18364;SDS011;9309;52.126;11.616;2023-09-07T18:41:00;7.60;;;3.03;;
18364;SDS011;9309;52.126;11.616;2023-09-07T18:43:30;2.80;;;2.60;;
18364;SDS011;9309;52.126;11.616;2023-09-07T18:46:02;2.78;;;2.17;;
18364;SDS011;9309;52.126;11.616;2023-09-07T18:48:31;2.72;;;2.53;;
18364;SDS011;9309;52.126;11.616;2023-09-07T18:51:02;2.45;;;2.33;;
18364;SDS011;9309;52.126;11.616;2023-09-07T18:53:31;2.60;;;2.40;;
18364;SDS011;9309;52.126;11.616;2023-09-07T18:56:00;3.42;;;2.42;;
18364;SDS011;9309;52.126;11.616;2023-09-07T18:58:27;2.85;;;2.65;;
18364;SDS011;9309;52.126;11.616;2023-09-07T19:00:54;2.72;;;2.53;;
18364;SDS011;9309;52.126;11.616;2023-09-07T19:03:20;3.60;;;2.80;;
18364;SDS011;9309;52.126;11.616;2023-09-07T19:05:48;3.83;;;2.38;;
18364;SDS011;9309;52.126;11.616;2023-09-07T19:08:16;2.92;;;2.42;;
18364;SDS011;9309;52.126;11.616;2023-09-07T19:10:43;4.85;;;2.55;;
18364;SDS011;9309;52.126;11.616;2023-09-07T19:13:11;2.78;;;2.58;;
18364;SDS011;9309;52.126;11.616;2023-09-07T19:15:37;2.22;;;2.13;;
18364;SDS011;9309;52.126;11.616;2023-09-07T19:18:04;2.55;;;2.35;;
18364;SDS011;9309;52.126;11.616;2023-09-07T19:20:31;2.55;;;2.35;;
18364;SDS011;9309;52.126;11.616;2023-09-07T19:22:58;3.08;;;2.70;;
18364;SDS011;9309;52.126;11.616;2023-09-07T19:25:26;2.67;;;2.53;;
18364;SDS011;9309;52.126;11.616;2023-09-07T19:27:55;3.38;;;2.63;;
18364;SDS011;9309;52.126;11.616;2023-09-07T19:30:22;3.60;;;2.58;;
18364;SDS011;9309;52.126;11.616;2023-09-07T19:32:49;3.50;;;2.67;;
18364;SDS011;9309;52.126;11.616;2023-09-07T19:35:16;2.95;;;2.75;;
18364;SDS011;9309;52.126;11.616;2023-09-07T19:37:42;3.53;;;2.75;;
18364;SDS011;9309;52.126;11.616;2023-09-07T19:40:10;3.00;;;2.88;;
18364;SDS011;9309;52.126;11.616;2023-09-07T19:42:39;5.05;;;3.05;;
18364;SDS011;9309;52.126;11.616;2023-09-07T19:45:06;2.95;;;2.75;;
18364;SDS011;9309;52.126;11.616;2023-09-07T19:47:33;2.45;;;2.30;;
18364;SDS011;9309;52.126;11.616;2023-09-07T19:50:00;2.83;;;2.50;;
18364;SDS011;9309;52.126;11.616;2023-09-07T19:52:27;2.97;;;2.78;;
18364;SDS011;9309;52.126;11.616;2023-09-07T19:54:54;2.70;;;2.50;;
18364;SDS011;9309;52.126;11.616;2023-09-07T19:57:21;2.65;;;2.45;;
18364;SDS011;9309;52.126;11.616;2023-09-07T19:59:50;3.58;;;2.85;;
18364;SDS011;9309;52.126;11.616;2023-09-07T20:02:17;2.40;;;2.30;;
18364;SDS011;9309;52.126;11.616;2023-09-07T20:04:44;2.63;;;2.42;;
18364;SDS011;9309;52.126;11.616;2023-09-07T20:07:10;3.10;;;2.85;;
18364;SDS011;9309;52.126;11.616;2023-09-07T20:09:37;3.03;;;2.67;;
18364;SDS011;9309;52.126;11.616;2023-09-07T20:12:04;3.10;;;2.85;;
18364;SDS011;9309;52.126;11.616;2023-09-07T20:14:31;19.40;;;5.43;;
18364;SDS011;9309;52.126;11.616;2023-09-07T20:16:59;2.30;;;2.20;;
18364;SDS011;9309;52.126;11.616;2023-09-07T20:19:29;2.97;;;2.67;;
18364;SDS011;9309;52.126;11.616;2023-09-07T20:22:06;2.78;;;2.55;;
18364;SDS011;9309;52.126;11.616;2023-09-07T20:24:33;3.13;;;2.88;;
18364;SDS011;9309;52.126;11.616;2023-09-07T20:27:00;4.68;;;2.70;;
18364;SDS011;9309;52.126;11.616;2023-09-07T20:29:27;11.43;;;2.72;;
18364;SDS011;9309;52.126;11.616;2023-09-07T20:31:54;2.92;;;2.70;;
18364;SDS011;9309;52.126;11.616;2023-09-07T20:34:22;2.70;;;2.28;;
18364;SDS011;9309;52.126;11.616;2023-09-07T20:36:49;3.35;;;2.20;;
18364;SDS011;9309;52.126;11.616;2023-09-07T20:39:16;3.72;;;2.83;;
18364;SDS011;9309;52.126;11.616;2023-09-07T20:41:44;3.53;;;3.28;;
18364;SDS011;9309;52.126;11.616;2023-09-07T20:44:10;3.33;;;2.78;;
18364;SDS011;9309;52.126;11.616;2023-09-07T20:46:37;2.92;;;2.72;;
18364;SDS011;9309;52.126;11.616;2023-09-07T20:49:04;4.20;;;3.05;;
18364;SDS011;9309;52.126;11.616;2023-09-07T20:51:32;2.55;;;2.45;;
18364;SDS011;9309;52.126;11.616;2023-09-07T20:54:01;6.38;;;3.05;;
18364;SDS011;9309;52.126;11.616;2023-09-07T20:56:29;3.15;;;2.85;;
18364;SDS011;9309;52.126;11.616;2023-09-07T20:58:55;2.70;;;2.50;;
18364;SDS011;9309;52.126;11.616;2023-09-07T21:01:22;2.60;;;2.40;;
18364;SDS011;9309;52.126;11.616;2023-09-07T21:03:49;2.63;;;2.47;;
18364;SDS011;9309;52.126;11.616;2023-09-07T21:06:16;2.60;;;2.42;;
18364;SDS011;9309;52.126;11.616;2023-09-07T21:08:44;3.08;;;2.45;;
18364;SDS011;9309;52.126;11.616;2023-09-07T21:11:11;3.97;;;3.03;;
18364;SDS011;9309;52.126;11.616;2023-09-07T21:13:38;4.45;;;2.70;;
18364;SDS011;9309;52.126;11.616;2023-09-07T21:16:05;4.80;;;2.47;;
18364;SDS011;9309;52.126;11.616;2023-09-07T21:18:32;2.40;;;2.20;;
18364;SDS011;9309;52.126;11.616;2023-09-07T21:20:58;5.43;;;2.88;;
18364;SDS011;9309;52.126;11.616;2023-09-07T21:23:25;2.75;;;2.55;;
18364;SDS011;9309;52.126;11.616;2023-09-07T21:25:53;3.42;;;2.53;;
18364;SDS011;9309;52.126;11.616;2023-09-07T21:28:20;3.05;;;2.40;;
18364;SDS011;9309;52.126;11.616;2023-09-07T21:30:47;2.65;;;2.47;;
18364;SDS011;9309;52.126;11.616;2023-09-07T21:33:14;2.70;;;2.50;;
18364;SDS011;9309;52.126;11.616;2023-09-07T21:35:41;2.90;;;2.60;;
18364;SDS011;9309;52.126;11.616;2023-09-07T21:38:07;3.20;;;2.40;;
18364;SDS011;9309;52.126;11.616;2023-09-07T21:40:34;2.53;;;2.33;;
18364;SDS011;9309;52.126;11.616;2023-09-07T21:43:02;3.38;;;3.08;;
18364;SDS011;9309;52.126;11.616;2023-09-07T21:45:29;4.35;;;2.75;;
18364;SDS011;9309;52.126;11.616;2023-09-07T21:47:56;3.70;;;3.22;;
18364;SDS011;9309;52.126;11.616;2023-09-07T21:50:23;2.65;;;2.45;;
18364;SDS011;9309;52.126;11.616;2023-09-07T21:52:50;2.97;;;2.47;;
18364;SDS011;9309;52.126;11.616;2023-09-07T21:55:17;5.22;;;2.80;;
18364;SDS011;9309;52.126;11.616;2023-09-07T21:57:44;4.97;;;3.17;;
18364;SDS011;9309;52.126;11.616;2023-09-07T22:00:13;3.13;;;2.65;;
18364;SDS011;9309;52.126;11.616;2023-09-07T22:02:41;3.42;;;2.90;;
18364;SDS011;9309;52.126;11.616;2023-09-07T22:05:08;2.65;;;2.45;;
18364;SDS011;9309;52.126;11.616;2023-09-07T22:07:35;4.03;;;3.63;;
18364;SDS011;9309;52.126;11.616;2023-09-07T22:10:02;2.83;;;2.60;;
18364;SDS011;9309;52.126;11.616;2023-09-07T22:12:29;2.97;;;2.78;;
18364;SDS011;9309;52.126;11.616;2023-09-07T22:14:56;4.85;;;3.00;;
18364;SDS011;9309;52.126;11.616;2023-09-07T22:17:24;2.85;;;2.63;;
18364;SDS011;9309;52.126;11.616;2023-09-07T22:19:51;3.97;;;3.28;;
18364;SDS011;9309;52.126;11.616;2023-09-07T22:22:18;2.78;;;2.58;;
18364;SDS011;9309;52.126;11.616;2023-09-07T22:24:45;3.60;;;3.20;;
18364;SDS011;9309;52.126;11.616;2023-09-07T22:27:12;2.80;;;2.60;;
18364;SDS011;9309;52.126;11.616;2023-09-07T22:29:38;2.75;;;2.55;;
18364;SDS011;9309;52.126;11.616;2023-09-07T22:32:06;4.15;;;3.10;;
18364;SDS011;9309;52.126;11.616;2023-09-07T22:34:34;2.95;;;2.75;;
18364;SDS011;9309;52.126;11.616;2023-09-07T22:37:01;3.15;;;2.65;;
18364;SDS011;9309;52.126;11.616;2023-09-07T22:39:28;2.95;;;2.75;;
18364;SDS011;9309;52.126;11.616;2023-09-07T22:41:55;3.25;;;2.88;;
18364;SDS011;9309;52.126;11.616;2023-09-07T22:44:21;5.55;;;2.80;;
18364;SDS011;9309;52.126;11.616;2023-09-07T22:46:48;3.00;;;2.80;;
18364;SDS011;9309;52.126;11.616;2023-09-07T22:49:15;4.05;;;2.88;;
18364;SDS011;9309;52.126;11.616;2023-09-07T22:51:43;2.85;;;2.65;;
18364;SDS011;9309;52.126;11.616;2023-09-07T22:54:10;2.55;;;2.42;;